McGill, NV

9:30 PM PST on December 26, 2014 (GMT -0800)
Cross Timbers | Change Station
CLOSE
Current Station
Personal Weather Station
Location: Ely, NV
Elevation: 6234 ft
Nearby Weather Stations

Elev 6234 ft 39.33 °N, 114.88 °W | Updated 55 minutes ago

Overcast
Overcast
19.4 °F
Feels Like 19 °F
N
0.0
Wind Variable Wind from NNE
Gusts 0.0 mph

Today
High -- | Low -- °F
--% Chance of Precip.
Yesterday
High -- | Low -- °F
Precip. -- in
6:57 AM 4:21 PM
Waxing Crescent, 33% visible
Pressure 30.31 in
Visibility 10.0 miles
Clouds Scattered Clouds 3600 ft
Overcast 5000 ft
Windchill 19 °F
Dew Point 12 °F
Humidity 74%
Rainfall 0.00 in
Snow Depth Not available.
UV 0 out of 12
Pollen .10 out of 12
Air Quality Not available.
Flu Activity Not available.
METAR KELY 270453Z AUTO 36008KT 10SM SCT036 OVC050 M07/M09 A3017 RMK AO2 SLP264 T10721094

More Conditions Fewer Conditions

Pressure 30.31 in
Visibility 10.0 miles
Clouds Scattered Clouds 3600 ft
Overcast 5000 ft
Windchill 19 °F
Dew Point 12 °F
Humidity 74%
Rainfall 0.00 in
Snow Depth Not available.
UV 0 out of 12
Pollen .10 out of 12
Air Quality Not available.
Flu Activity Not available.
METAR KELY 270453Z AUTO 36008KT 10SM SCT036 OVC050 M07/M09 A3017 RMK AO2 SLP264 T10721094

More Conditions Fewer Conditions

10-Day Weather Forecast

Almanac

Astronomy

Dec. 26, 2014 Rise Set
Actual Time
Civil Twilight
Nautical Twilight
Astronomical Twilight
Moon
Length of Visible Light
Length of Day
Tomorrow will be .
, % of the Moon is Illuminated

Today's Extremes

State Highs State Lows

Community

WunderPhotos

Upload Photos

1,780,849 photos uploaded!

WunderBlogs® & News

Nearby

Air Quality

  Air Quality AQ Index Pollutant
Not available.

Snow Depth

Station Depth Elevation

Earthquake Activity

City Distance Mag. Time & Date
Minimum magnitude displayed is 2.5.

Coastal Water Temperatures

Place Temperature

Nearby Weather Stations